createdAt,value
2023-05-08T00:01:44.014Z,100879.94
2023-05-08T00:04:11.516Z,100876.00
2023-05-08T00:06:38.991Z,100881.63
2023-05-08T00:09:06.401Z,100879.19
2023-05-08T00:11:33.774Z,100880.31
2023-05-08T00:14:01.075Z,100881.81
2023-05-08T00:16:28.439Z,100876.97
2023-05-08T00:18:55.930Z,100875.25
2023-05-08T00:21:23.283Z,100877.41
2023-05-08T00:23:50.820Z,100875.38
2023-05-08T00:26:18.205Z,100868.25
2023-05-08T00:28:45.624Z,100866.94
2023-05-08T00:31:14.097Z,100863.88
2023-05-08T00:33:41.502Z,100858.63
2023-05-08T00:36:09.073Z,100856.75
2023-05-08T00:38:37.187Z,100852.06
2023-05-08T00:41:04.759Z,100841.03
2023-05-08T00:43:32.264Z,100839.16
2023-05-08T00:46:01.391Z,100850.97
2023-05-08T00:48:29.384Z,100840.47
2023-05-08T00:50:56.945Z,100838.41
2023-05-08T00:53:26.136Z,100842.63
2023-05-08T00:55:53.710Z,100838.97
2023-05-08T00:58:21.275Z,100837.47
2023-05-08T01:00:50.933Z,100845.13
2023-05-08T01:03:18.528Z,100841.09
2023-05-08T01:05:46.120Z,100838.38
2023-05-08T01:08:13.507Z,100841.28
2023-05-08T01:10:40.769Z,100836.69
2023-05-08T01:13:23.551Z,100838.19
2023-05-08T01:15:54.725Z,100840.63
2023-05-08T01:18:22.171Z,100842.69
2023-05-08T01:21:17.656Z,100837.91
2023-05-08T01:24:05.081Z,100835.03
2023-05-08T01:26:32.436Z,100833.91
2023-05-08T01:28:59.697Z,100829.22
2023-05-08T01:31:46.096Z,100834.16
2023-05-08T01:34:29.480Z,100825.38
2023-05-08T01:37:03.003Z,100835.19
2023-05-08T01:39:49.240Z,100836.88
2023-05-08T01:42:24.581Z,100842.13
2023-05-08T01:44:54.967Z,100838.38
2023-05-08T01:47:24.993Z,100833.16
2023-05-08T01:50:07.391Z,100830.72
2023-05-08T01:52:37.294Z,100834.09
2023-05-08T01:55:07.775Z,100832.78
2023-05-08T01:57:38.468Z,100825.50
2023-05-08T02:00:06.664Z,100832.97
2023-05-08T02:02:38.386Z,100826.41
2023-05-08T02:07:51.972Z,100820.97
2023-05-08T02:10:26.152Z,100823.25
2023-05-08T02:12:54.893Z,100810.50
2023-05-08T02:15:25.001Z,100817.63
2023-05-08T02:17:53.999Z,100815.38
2023-05-08T02:20:22.421Z,100815.28
2023-05-08T02:22:51.946Z,100824.91
2023-05-08T02:25:19.597Z,100827.53
2023-05-08T02:27:47.962Z,100823.97
2023-05-08T02:30:18.879Z,100815.19
2023-05-08T02:32:48.391Z,100825.09
2023-05-08T02:35:17.191Z,100844.03
2023-05-08T02:37:48.472Z,100839.91
2023-05-08T02:40:19.598Z,100847.75
2023-05-08T02:42:51.039Z,100849.63
2023-05-08T02:45:18.920Z,100847.19
2023-05-08T02:47:52.251Z,100845.53
2023-05-08T02:50:20.020Z,100852.06
2023-05-08T02:52:49.683Z,100856.81
2023-05-08T02:55:33.529Z,100854.31
2023-05-08T02:58:10.964Z,100872.25
2023-05-08T03:00:45.972Z,100860.13
2023-05-08T03:03:32.656Z,100867.69
2023-05-08T03:06:04.702Z,100860.84
2023-05-08T03:08:35.275Z,100856.75
2023-05-08T03:11:14.479Z,100863.31
2023-05-08T03:13:50.014Z,100871.94
2023-05-08T03:16:21.211Z,100862.06
2023-05-08T03:18:56.058Z,100860.66
2023-05-08T03:21:30.546Z,100867.41
2023-05-08T03:23:59.784Z,100855.44
2023-05-08T03:26:30.979Z,100859.75
2023-05-08T03:28:58.960Z,100867.97
2023-05-08T03:31:32.269Z,100879.94
2023-05-08T03:34:03.181Z,100878.47
2023-05-08T03:36:32.719Z,100893.50
2023-05-08T03:39:01.730Z,100886.25
2023-05-08T03:41:29.543Z,100892.28
2023-05-08T03:43:57.807Z,100885.63
2023-05-08T03:46:30.792Z,100895.53
2023-05-08T03:49:04.127Z,100895.44
2023-05-08T03:51:38.100Z,100895.28
2023-05-08T03:54:05.650Z,100897.72
2023-05-08T03:56:36.044Z,100908.03
2023-05-08T03:59:24.922Z,100907.66
2023-05-08T04:02:10.378Z,100918.72
2023-05-08T04:04:42.486Z,100927.72
2023-05-08T04:07:32.611Z,100932.75
2023-05-08T04:10:08.729Z,100947.00
2023-05-08T04:12:43.986Z,100946.84
2023-05-08T04:15:19.850Z,100950.22
2023-05-08T04:18:03.461Z,100961.47
2023-05-08T04:20:34.971Z,100970.47
2023-05-08T04:23:03.962Z,100967.28
2023-05-08T04:25:34.318Z,100975.72
2023-05-08T04:28:02.819Z,100980.09
2023-05-08T04:30:32.017Z,100979.94
2023-05-08T04:33:02.729Z,100991.06
2023-05-08T04:35:30.783Z,100993.88
2023-05-08T04:37:59.219Z,100993.31
2023-05-08T04:40:27.191Z,101001.56
2023-05-08T04:42:55.037Z,100998.91
2023-05-08T04:45:23.279Z,101009.91
2023-05-08T04:47:51.139Z,101007.38
2023-05-08T04:50:18.871Z,101012.63
2023-05-08T04:52:47.103Z,101014.28
2023-05-08T04:55:14.829Z,101021.22
2023-05-08T04:57:42.573Z,101021.22
2023-05-08T05:00:10.837Z,101015.81
2023-05-08T05:02:41.476Z,101021.22
2023-05-08T05:05:08.922Z,101022.81
2023-05-08T05:07:36.461Z,101030.97
2023-05-08T05:10:04.433Z,101032.53
2023-05-08T05:12:33.227Z,101024.44
2023-05-08T05:15:00.895Z,101029.66
2023-05-08T05:17:33.752Z,101027.78
2023-05-08T05:20:01.310Z,101031.19
2023-05-08T05:22:29.211Z,101041.00
2023-05-08T05:24:56.896Z,101041.47
2023-05-08T05:27:25.629Z,101037.22
2023-05-08T05:29:53.671Z,101040.91
2023-05-08T05:32:22.258Z,101033.34
2023-05-08T05:34:49.987Z,101036.69
2023-05-08T05:37:17.656Z,101037.25
2023-05-08T05:39:45.105Z,101029.09
2023-05-08T05:42:12.720Z,101031.63
2023-05-08T05:44:40.498Z,101032.88
2023-05-08T05:47:10.706Z,101036.44
2023-05-08T05:49:43.219Z,101029.28
2023-05-08T05:52:15.320Z,101035.88
2023-05-08T05:54:54.215Z,101024.78
2023-05-08T05:57:25.786Z,101027.06
2023-05-08T05:59:54.872Z,101021.81
2023-05-08T06:02:27.513Z,101019.94
2023-05-08T06:04:58.256Z,101017.78
2023-05-08T06:07:29.418Z,101023.88
2023-05-08T06:10:05.761Z,101013.03
2023-05-08T06:12:33.673Z,101011.97
2023-05-08T06:15:05.568Z,101011.16
2023-05-08T06:17:33.920Z,101017.53
2023-05-08T06:20:01.499Z,101013.28
2023-05-08T06:22:59.980Z,101016.78
2023-05-08T06:25:28.298Z,101021.28
2023-05-08T06:27:55.825Z,101026.72
2023-05-08T06:30:24.120Z,101016.78
2023-05-08T06:33:16.714Z,101016.06
2023-05-08T06:35:47.988Z,101019.59
2023-05-08T06:38:16.102Z,101024.66
2023-05-08T06:41:15.388Z,101033.84
2023-05-08T06:43:49.443Z,101035.06
2023-05-08T06:46:24.385Z,101036.84
2023-05-08T06:49:17.237Z,101041.06
2023-05-08T06:52:11.311Z,101036.09
2023-05-08T06:55:04.826Z,101031.31
2023-05-08T06:57:37.227Z,101031.59
2023-05-08T07:00:11.911Z,101022.81
2023-05-08T07:02:42.604Z,101032.16
2023-05-08T07:05:10.604Z,101027.09
2023-05-08T07:07:43.335Z,101033.09
2023-05-08T07:10:28.912Z,101039.47
2023-05-08T07:12:56.573Z,101041.72
2023-05-08T07:15:25.963Z,101042.28
2023-05-08T07:17:54.532Z,101037.56
2023-05-08T07:20:26.169Z,101035.63
2023-05-08T07:22:57.669Z,101047.25
2023-05-08T07:25:25.456Z,101042.47
2023-05-08T07:27:52.866Z,101040.38
2023-05-08T07:30:20.957Z,101041.25
2023-05-08T07:32:48.676Z,101052.78
2023-05-08T07:35:16.736Z,101054.28
2023-05-08T07:37:44.589Z,101064.78
2023-05-08T07:40:12.723Z,101059.53
2023-05-08T07:42:44.112Z,101066.63
2023-05-08T07:45:15.164Z,101070.41
2023-05-08T07:47:52.541Z,101070.78
2023-05-08T07:50:20.930Z,101065.69
2023-05-08T07:52:50.146Z,101077.16
2023-05-08T07:55:18.565Z,101069.84
2023-05-08T07:57:46.081Z,101076.19
2023-05-08T08:02:58.618Z,101076.59
2023-05-08T08:05:26.165Z,101068.81
2023-05-08T08:07:53.682Z,101072.63
2023-05-08T08:10:21.162Z,101072.84
2023-05-08T08:12:48.655Z,101078.66
2023-05-08T08:15:16.130Z,101078.44
2023-05-08T08:17:43.708Z,101078.53
2023-05-08T08:20:11.383Z,101089.53
2023-05-08T08:22:39.235Z,101083.16
2023-05-08T08:25:07.007Z,101087.84
2023-05-08T08:27:34.441Z,101086.34
2023-05-08T08:30:12.839Z,101091.78
2023-05-08T08:32:44.526Z,101090.09
2023-05-08T08:35:12.136Z,101090.28
2023-05-08T08:37:39.778Z,101090.75
2023-05-08T08:40:07.914Z,101088.03
2023-05-08T08:42:35.871Z,101088.22
2023-05-08T08:45:03.398Z,101077.53
2023-05-08T08:47:37.136Z,101083.16
2023-05-08T08:50:05.429Z,101084.47
2023-05-08T08:52:55.948Z,101089.94
2023-05-08T08:55:39.860Z,101089.16
2023-05-08T08:58:20.247Z,101091.69
2023-05-08T09:00:48.306Z,101093.25
2023-05-08T09:03:16.048Z,101091.75
2023-05-08T09:05:44.579Z,101094.56
2023-05-08T09:08:16.013Z,101097.66
2023-05-08T09:10:46.368Z,101096.88
2023-05-08T09:13:13.755Z,101088.31
2023-05-08T09:15:41.428Z,101100.75
2023-05-08T09:18:08.942Z,101095.94
2023-05-08T09:20:36.748Z,101091.41
2023-05-08T09:23:04.310Z,101098.06
2023-05-08T09:25:46.466Z,101101.88
2023-05-08T09:28:21.339Z,101095.56
2023-05-08T09:31:12.005Z,101100.72
2023-05-08T09:33:44.167Z,101103.13
2023-05-08T09:36:25.203Z,101103.34
2023-05-08T09:38:52.679Z,101104.31
2023-05-08T09:41:24.874Z,101110.81
2023-05-08T09:44:06.075Z,101111.97
2023-05-08T09:46:34.445Z,101111.16
2023-05-08T09:49:03.156Z,101109.69
2023-05-08T09:51:33.924Z,101122.88
2023-05-08T09:54:04.473Z,101115.69
2023-05-08T09:56:37.853Z,101111.28
2023-05-08T09:59:22.683Z,101122.88
2023-05-08T10:01:50.446Z,101115.50
2023-05-08T10:04:18.101Z,101113.59
2023-05-08T10:06:56.589Z,101116.13
2023-05-08T10:09:24.254Z,101122.22
2023-05-08T10:11:58.508Z,101113.81
2023-05-08T10:14:51.587Z,101118.44
2023-05-08T10:17:28.352Z,101118.03
2023-05-08T10:19:58.545Z,101113.34
2023-05-08T10:22:26.488Z,101109.75
2023-05-08T10:24:58.722Z,101103.88
2023-05-08T10:27:48.760Z,101108.25
2023-05-08T10:30:25.108Z,101104.63
2023-05-08T10:32:57.112Z,101102.03
2023-05-08T10:35:33.601Z,101101.22
2023-05-08T10:38:02.737Z,101092.13
2023-05-08T10:41:30.736Z,101094.56
2023-05-08T10:44:01.723Z,101090.31
2023-05-08T10:47:01.073Z,101083.03
2023-05-08T10:50:11.843Z,101078.34
2023-05-08T11:12:33.447Z,101073.69
2023-05-08T11:18:11.525Z,101078.44
2023-05-08T11:20:40.178Z,101081.31
2023-05-08T11:23:26.978Z,101071.59
2023-05-08T11:26:04.123Z,101080.63
2023-05-08T11:28:46.304Z,101077.75
2023-05-08T11:31:13.635Z,101075.81
2023-05-08T11:33:58.833Z,101074.38
2023-05-08T11:36:50.512Z,101078.97
2023-05-08T11:39:18.074Z,101081.63
2023-05-08T11:41:51.632Z,101075.09
2023-05-08T11:44:55.208Z,101075.47
2023-05-08T11:47:32.862Z,101088.06
2023-05-08T11:50:10.680Z,101089.72
2023-05-08T11:52:39.557Z,101086.13
2023-05-08T11:55:11.145Z,101086.16
2023-05-08T11:57:38.893Z,101082.09
2023-05-08T12:00:10.093Z,101073.94
2023-05-08T12:03:02.925Z,101079.72
2023-05-08T12:05:46.023Z,101078.28
2023-05-08T12:08:42.827Z,101071.81
2023-05-08T12:11:39.042Z,101069.66
2023-05-08T12:14:31.640Z,101071.31
2023-05-08T12:20:37.512Z,101063.63
2023-05-08T12:23:32.583Z,101065.56
2023-05-08T12:26:15.985Z,101065.06
2023-05-08T12:29:02.921Z,101067.00
2023-05-08T12:32:03.737Z,101050.06
2023-05-08T12:34:43.937Z,101067.00
2023-05-08T12:37:43.233Z,101063.16
2023-05-08T12:40:35.757Z,101067.72
2023-05-08T12:43:05.051Z,101069.41
2023-05-08T12:45:43.187Z,101065.56
2023-05-08T12:48:30.728Z,101064.84
2023-05-08T12:51:02.616Z,101071.56
2023-05-08T12:54:03.455Z,101063.63
2023-05-08T12:56:51.499Z,101059.78
2023-05-08T12:59:30.655Z,101062.31
2023-05-08T13:01:59.274Z,101063.63
2023-05-08T13:04:39.313Z,101067.22
2023-05-08T13:07:08.190Z,101060.88
2023-05-08T13:09:35.743Z,101066.28
2023-05-08T13:12:04.235Z,101061.25
2023-05-08T13:14:35.762Z,101052.56
2023-05-08T13:17:03.791Z,101050.06
2023-05-08T13:19:31.831Z,101049.47
2023-05-08T13:21:59.646Z,101038.91
2023-05-08T13:24:28.059Z,101042.00
2023-05-08T13:26:55.770Z,101035.66
2023-05-08T13:29:25.271Z,101033.13
2023-05-08T13:32:05.247Z,101034.00
2023-05-08T13:34:37.777Z,101025.19
2023-05-08T13:37:10.522Z,101025.81
2023-05-08T13:39:43.965Z,101018.84
2023-05-08T13:42:39.695Z,101024.75
2023-05-08T13:45:06.348Z,101017.50
2023-05-08T13:47:40.994Z,101018.44
2023-05-08T13:50:10.185Z,101020.00
2023-05-08T13:52:41.574Z,101026.63
2023-05-08T13:55:13.414Z,101018.47
2023-05-08T13:57:45.910Z,101011.97
2023-05-08T14:00:40.372Z,101013.66
2023-05-08T14:03:08.771Z,101017.00
2023-05-08T14:05:45.506Z,101017.50
2023-05-08T14:08:13.691Z,101018.44
2023-05-08T14:14:09.257Z,101028.09
2023-05-08T14:16:41.785Z,101025.09
2023-05-08T14:23:51.621Z,101008.91
2023-05-08T14:30:34.321Z,101007.66
2023-05-08T14:33:11.643Z,101002.59
2023-05-08T14:35:44.464Z,100993.72
2023-05-08T14:38:23.716Z,100992.25
2023-05-08T14:40:51.584Z,100991.28
2023-05-08T14:52:44.530Z,100974.91
2023-05-08T14:56:03.945Z,100976.81
2023-05-08T14:58:49.305Z,100980.00
2023-05-08T15:01:19.213Z,100984.53
2023-05-08T15:03:53.593Z,100983.09
2023-05-08T15:06:33.946Z,100973.06
2023-05-08T15:09:15.605Z,100978.81
2023-05-08T15:11:47.625Z,100984.72
2023-05-08T15:14:24.448Z,100972.56
2023-05-08T15:17:12.399Z,100971.38
2023-05-08T15:20:12.559Z,100977.13
2023-05-08T15:54:05.902Z,100985.06
2023-05-08T15:57:02.052Z,100980.53
2023-05-08T16:02:36.599Z,100984.72
2023-05-08T16:11:05.609Z,100990.63
2023-05-08T16:21:00.407Z,100993.53
2023-05-08T16:23:38.655Z,100983.56
2023-05-08T16:26:24.296Z,100983.22
2023-05-08T16:28:55.283Z,100981.06
2023-05-08T16:31:28.268Z,100975.03
2023-05-08T16:34:02.800Z,100975.53
2023-05-08T16:36:31.989Z,100981.03
2023-05-08T16:39:01.059Z,100984.75
2023-05-08T16:41:29.364Z,100987.16
2023-05-08T16:44:03.141Z,100992.31
2023-05-08T16:46:33.301Z,100978.66
2023-05-08T16:49:29.285Z,101001.44
2023-05-08T16:52:10.472Z,101001.19
2023-05-08T16:54:38.312Z,100994.00
2023-05-08T16:57:05.829Z,100997.03
2023-05-08T16:59:33.718Z,100999.53
2023-05-08T17:02:04.692Z,101005.06
2023-05-08T17:04:38.594Z,100994.94
2023-05-08T17:07:14.684Z,101008.25
2023-05-08T17:09:42.496Z,101003.59
2023-05-08T17:12:19.317Z,101004.69
2023-05-08T17:14:48.786Z,101005.94
2023-05-08T17:17:26.628Z,101006.19
2023-05-08T17:19:57.262Z,101012.63
2023-05-08T17:22:28.624Z,101018.34
2023-05-08T17:24:57.529Z,101023.84
2023-05-08T17:27:27.715Z,101021.50
2023-05-08T17:30:00.373Z,101021.97
2023-05-08T17:32:35.431Z,101026.03
2023-05-08T17:35:17.917Z,101029.13
2023-05-08T17:37:47.721Z,101027.84
2023-05-08T17:40:20.539Z,101029.38
2023-05-08T17:42:50.833Z,101032.97
2023-05-08T17:50:57.752Z,101051.44
2023-05-08T17:53:34.214Z,101044.69
2023-05-08T18:00:38.671Z,101048.22
2023-05-08T18:03:22.631Z,101054.97
2023-05-08T18:06:31.283Z,101051.59
2023-05-08T18:09:26.518Z,101045.59
2023-05-08T18:12:03.530Z,101049.91
2023-05-08T18:14:39.698Z,101055.59
2023-05-08T18:17:10.575Z,101056.75
2023-05-08T18:19:39.024Z,101063.41
2023-05-08T18:22:08.576Z,101066.16
2023-05-08T18:24:36.361Z,101069.53
2023-05-08T18:27:03.874Z,101073.56
2023-05-08T18:29:34.479Z,101067.69
2023-05-08T18:32:04.101Z,101073.34
2023-05-08T18:34:32.972Z,101074.00
2023-05-08T18:37:00.264Z,101072.09
2023-05-08T18:39:29.838Z,101081.88
2023-05-08T18:42:04.271Z,101077.13
2023-05-08T18:44:37.690Z,101082.81
2023-05-08T18:47:07.059Z,101080.56
2023-05-08T18:49:35.447Z,101092.44
2023-05-08T18:52:10.655Z,101092.66
2023-05-08T18:55:05.866Z,101094.94
2023-05-08T18:57:33.204Z,101097.97
2023-05-08T19:00:00.680Z,101099.09
2023-05-08T19:02:28.372Z,101096.16
2023-05-08T19:04:56.009Z,101099.31
2023-05-08T19:07:23.611Z,101100.06
2023-05-08T19:09:51.319Z,101099.31
2023-05-08T19:12:18.765Z,101101.00
2023-05-08T19:14:46.183Z,101110.22
2023-05-08T19:17:14.191Z,101108.94
2023-05-08T19:19:42.520Z,101116.28
2023-05-08T19:22:10.252Z,101109.16
2023-05-08T19:24:40.271Z,101114.41
2023-05-08T19:27:08.772Z,101121.53
2023-05-08T19:29:41.031Z,101121.31
2023-05-08T19:32:09.549Z,101123.78
2023-05-08T19:34:39.545Z,101122.09
2023-05-08T19:37:08.565Z,101118.69
2023-05-08T19:39:36.337Z,101125.94
2023-05-08T19:42:05.050Z,101127.19
2023-05-08T19:44:33.498Z,101131.63
2023-05-08T19:47:03.807Z,101131.34
2023-05-08T19:49:32.310Z,101138.28
2023-05-08T19:52:01.251Z,101136.97
2023-05-08T19:54:30.485Z,101143.19
2023-05-08T19:56:58.212Z,101147.88
2023-05-08T19:59:26.676Z,101153.31
2023-05-08T20:01:57.749Z,101159.31
2023-05-08T20:04:25.768Z,101158.59
2023-05-08T20:06:53.690Z,101148.72
2023-05-08T20:12:16.594Z,101163.84
2023-05-08T20:17:53.161Z,101155.19
2023-05-08T20:20:22.532Z,101155.38
2023-05-08T20:22:52.730Z,101160.09
2023-05-08T20:25:22.019Z,101153.34
2023-05-08T20:27:53.879Z,101157.00
2023-05-08T20:30:23.463Z,101148.34
2023-05-08T20:32:54.388Z,101152.97
2023-05-08T20:35:22.426Z,101151.44
2023-05-08T20:37:50.600Z,101150.75
2023-05-08T20:40:23.495Z,101149.94
2023-05-08T20:42:58.170Z,101154.44
2023-05-08T20:45:26.172Z,101149.94
2023-05-08T20:47:53.862Z,101148.06
2023-05-08T21:33:30.754Z,101129.66
2023-05-08T21:36:03.623Z,101134.16
2023-05-08T21:41:51.393Z,101134.91
2023-05-08T21:44:57.950Z,101128.00
2023-05-08T21:47:31.068Z,101133.25
2023-05-08T21:50:15.883Z,101129.66
2023-05-08T21:52:48.874Z,101132.75
2023-05-08T21:55:26.304Z,101126.69
2023-05-08T21:58:04.734Z,101135.09
2023-05-08T22:00:42.498Z,101132.19
2023-05-08T22:03:29.792Z,101129.44
2023-05-08T22:06:10.921Z,101142.16
2023-05-08T22:09:02.776Z,101140.84
2023-05-08T22:11:57.015Z,101141.22
2023-05-08T22:14:32.286Z,101134.81
2023-05-08T22:17:55.330Z,101139.06
2023-05-08T22:20:58.653Z,101148.66
2023-05-08T22:23:59.756Z,101150.25
2023-05-08T22:26:52.796Z,101143.13
2023-05-08T22:29:49.235Z,101144.63
2023-05-08T22:36:39.465Z,101131.22
2023-05-08T22:39:30.160Z,101129.28
2023-05-08T22:42:15.550Z,101128.59
2023-05-08T22:45:01.664Z,101125.72
2023-05-08T22:47:36.651Z,101129.50
2023-05-08T22:50:32.203Z,101134.38
2023-05-08T22:53:26.318Z,101136.22
2023-05-08T22:58:05.117Z,101131.38
2023-05-08T23:20:55.022Z,101108.78
2023-05-08T23:23:43.337Z,101103.25
2023-05-08T23:26:50.997Z,101097.19
2023-05-08T23:30:00.427Z,101101.66
